Time;durP1;ratioP1;P1;durP2;ratioP2;P2;SDS_P1;SDS_P2;PMS_P1;PMS_P2;Temp;Humidity;BMP_temperature;BMP_pressure;BME280_temperature;BME280_humidity;BME280_pressure;Samples;Min_cycle;Max_cycle;Signal;HPM_P1;HPM_P2
2024/01/25 00:00:03;;;;;;;25.10;4.13;;;;;;;6.02;100.00;102540.00;5069026;28;20517;-47
2024/01/25 00:02:31;;;;;;;32.42;4.93;;;;;;;6.00;100.00;102536.53;5069878;28;20040;-47
2024/01/25 00:04:59;;;;;;;21.83;4.32;;;;;;;6.00;100.00;102544.38;5070437;28;20427;-49
2024/01/25 00:07:29;;;;;;;31.15;5.38;;;;;;;5.97;100.00;102550.50;5068881;28;20071;-48
2024/01/25 00:09:57;;;;;;;31.55;5.13;;;;;;;5.95;100.00;102548.81;5071662;28;20430;-49
2024/01/25 00:12:26;;;;;;;28.05;4.93;;;;;;;5.89;100.00;102549.75;5072544;28;20040;-47
2024/01/25 00:14:55;;;;;;;32.58;5.30;;;;;;;5.84;100.00;102549.84;5072509;28;20044;-46
2024/01/25 00:17:24;;;;;;;23.23;4.63;;;;;;;5.80;100.00;102552.56;5072521;28;20041;-46
2024/01/25 00:19:52;;;;;;;23.70;4.53;;;;;;;5.76;100.00;102554.34;5069381;28;20076;-46
2024/01/25 00:22:21;;;;;;;26.50;4.10;;;;;;;5.73;100.00;102557.03;5069179;28;20047;-46
2024/01/25 00:24:49;;;;;;;27.15;5.03;;;;;;;5.68;100.00;102561.44;5072766;28;20048;-46
2024/01/25 00:27:17;;;;;;;29.90;5.07;;;;;;;5.62;100.00;102565.03;5072689;28;20041;-46
2024/01/25 00:29:48;;;;;;;30.92;5.47;;;;;;;5.54;100.00;102562.53;5072446;28;20045;-47
2024/01/25 00:32:16;;;;;;;26.98;4.40;;;;;;;5.50;100.00;102558.25;5069989;28;20383;-47
2024/01/25 00:34:46;;;;;;;30.48;5.78;;;;;;;5.47;100.00;102567.88;5067507;28;20056;-46
2024/01/25 00:37:15;;;;;;;29.67;5.80;;;;;;;5.43;100.00;102559.25;5072298;28;20135;-46
2024/01/25 00:39:44;;;;;;;27.17;4.60;;;;;;;5.38;100.00;102564.53;5072576;28;20494;-47
2024/01/25 00:42:14;;;;;;;21.70;4.03;;;;;;;5.33;100.00;102570.72;5072124;28;20124;-49
2024/01/25 00:44:43;;;;;;;22.95;4.22;;;;;;;5.24;100.00;102564.75;5072027;28;20076;-49
2024/01/25 00:47:11;;;;;;;28.13;4.78;;;;;;;5.22;100.00;102571.75;5070551;28;20044;-47
2024/01/25 00:49:40;;;;;;;21.83;4.38;;;;;;;5.16;100.00;102581.41;5072209;28;20499;-50
2024/01/25 00:52:11;;;;;;;26.80;5.03;;;;;;;5.10;100.00;102581.50;5071590;28;20391;-49
2024/01/25 00:54:40;;;;;;;24.35;4.25;;;;;;;5.10;100.00;102573.66;5068523;28;20072;-45
2024/01/25 00:57:10;;;;;;;22.33;4.35;;;;;;;5.01;100.00;102569.47;5069247;28;20041;-47
2024/01/25 00:59:39;;;;;;;22.00;4.25;;;;;;;4.97;100.00;102573.84;5073957;28;20048;-47
2024/01/25 01:02:12;;;;;;;24.90;4.80;;;;;;;4.92;100.00;102573.03;5075944;28;20597;-47
2024/01/25 01:04:41;;;;;;;24.88;4.35;;;;;;;4.86;100.00;102574.00;5075854;28;20041;-47
2024/01/25 01:07:17;;;;;;;26.80;4.60;;;;;;;4.85;100.00;102587.03;5076186;28;20434;-47
2024/01/25 01:09:46;;;;;;;23.48;4.05;;;;;;;4.81;100.00;102585.38;5076057;28;20048;-46
2024/01/25 01:12:14;;;;;;;21.45;4.50;;;;;;;4.76;100.00;102581.94;5075918;28;20044;-46
2024/01/25 01:14:42;;;;;;;21.92;4.07;;;;;;;4.70;100.00;102580.28;5075669;28;20365;-47
2024/01/25 01:17:10;;;;;;;25.83;4.65;;;;;;;4.68;100.00;102595.09;5075556;28;20044;-47
2024/01/25 01:19:38;;;;;;;21.23;4.20;;;;;;;4.63;100.00;102596.91;5075116;28;20059;-47
2024/01/25 01:22:09;;;;;;;22.73;4.20;;;;;;;4.53;100.00;102594.38;5075171;28;20497;-46
2024/01/25 01:24:39;;;;;;;20.98;4.25;;;;;;;4.49;100.00;102595.31;5072948;28;20102;-47
2024/01/25 01:27:07;;;;;;;22.40;4.22;;;;;;;4.46;100.00;102597.06;5071475;28;20072;-47
2024/01/25 01:29:35;;;;;;;26.17;4.30;;;;;;;4.42;100.00;102598.00;5071634;28;20060;-46
2024/01/25 01:32:04;;;;;;;24.27;3.97;;;;;;;4.37;100.00;102600.66;5075558;28;20044;-46
2024/01/25 01:34:32;;;;;;;26.80;3.72;;;;;;;4.33;100.00;102618.06;5075316;28;20500;-47
2024/01/25 01:37:01;;;;;;;20.48;3.67;;;;;;;4.27;100.00;102614.66;5073042;28;20382;-45
2024/01/25 01:39:29;;;;;;;18.92;4.32;;;;;;;4.23;100.00;102616.44;5072036;28;20132;-46
2024/01/25 01:41:59;;;;;;;22.00;4.10;;;;;;;4.20;100.00;102622.53;5075573;28;20098;-46
2024/01/25 01:44:27;;;;;;;22.30;3.55;;;;;;;4.17;100.00;102619.97;5075426;28;20053;-47
2024/01/25 01:46:55;;;;;;;23.63;4.13;;;;;;;4.15;100.00;102631.28;5075304;28;20068;-47
2024/01/25 01:49:24;;;;;;;25.73;4.82;;;;;;;4.13;100.00;102631.31;5072096;28;20040;-46
2024/01/25 01:51:53;;;;;;;16.92;3.42;;;;;;;4.11;100.00;102634.78;5071771;28;20106;-48
2024/01/25 01:54:21;;;;;;;21.88;4.03;;;;;;;4.09;100.00;102645.22;5074933;28;20094;-44
2024/01/25 01:56:50;;;;;;;24.42;3.92;;;;;;;4.04;100.00;102639.19;5074993;28;20052;-44
2024/01/25 01:59:20;;;;;;;19.40;4.18;;;;;;;3.98;100.00;102636.63;5074990;28;20488;-45
2024/01/25 02:01:48;;;;;;;24.00;3.83;;;;;;;3.93;100.00;102639.28;5074959;28;20048;-45
2024/01/25 02:04:17;;;;;;;22.60;4.22;;;;;;;3.89;100.00;102645.41;5075072;28;20484;-46
2024/01/25 02:06:46;;;;;;;22.70;4.28;;;;;;;3.86;100.00;102645.44;5070386;28;20168;-49
2024/01/25 02:09:14;;;;;;;27.55;4.32;;;;;;;3.82;100.00;102649.78;5070373;28;20041;-49
2024/01/25 02:11:42;;;;;;;25.13;4.80;;;;;;;3.76;100.00;102652.41;5071907;28;20431;-48
2024/01/25 02:14:11;;;;;;;21.25;4.03;;;;;;;3.73;100.00;102655.06;5070477;28;21104;-46
2024/01/25 02:16:45;;;;;;;19.00;4.00;;;;;;;3.69;100.00;102654.19;5070720;28;20458;-47
2024/01/25 02:19:13;;;;;;;17.05;4.03;;;;;;;3.69;100.00;102655.97;5070296;28;20048;-50
2024/01/25 02:21:42;;;;;;;28.48;4.10;;;;;;;3.66;100.00;102659.44;5072157;28;20460;-50
2024/01/25 02:24:12;;;;;;;28.88;4.63;;;;;;;3.66;100.00;102661.19;5074007;28;20053;-48
2024/01/25 02:26:43;;;;;;;23.92;4.13;;;;;;;3.62;100.00;102655.13;5073663;28;20090;-46
2024/01/25 02:29:11;;;;;;;25.25;4.72;;;;;;;3.58;100.00;102655.19;5074237;28;20068;-48
2024/01/25 02:31:39;;;;;;;31.60;6.25;;;;;;;3.53;100.00;102650.88;5073945;28;20048;-46
2024/01/25 02:34:07;;;;;;;28.30;4.75;;;;;;;3.52;100.00;102656.94;5073750;28;20101;-46
2024/01/25 02:36:36;;;;;;;24.63;4.60;;;;;;;3.50;100.00;102655.22;5072763;28;20518;-46
2024/01/25 02:39:05;;;;;;;35.35;5.20;;;;;;;3.47;100.00;102666.50;5073988;28;20072;-46
2024/01/25 02:41:35;;;;;;;22.08;3.80;;;;;;;3.45;100.00;102665.66;5074362;28;20530;-47
2024/01/25 02:44:03;;;;;;;21.98;4.20;;;;;;;3.41;100.00;102658.75;5073980;28;20044;-45
2024/01/25 02:46:31;;;;;;;22.10;3.53;;;;;;;3.41;100.00;102661.34;5074031;28;20044;-46
2024/01/25 02:48:59;;;;;;;23.63;4.30;;;;;;;3.38;100.00;102675.25;5073857;28;20049;-46
2024/01/25 02:51:28;;;;;;;22.92;4.55;;;;;;;3.36;100.00;102673.53;5072324;28;20311;-45
2024/01/25 02:53:56;;;;;;;23.40;4.35;;;;;;;3.33;100.00;102674.41;5069872;28;20055;-46
2024/01/25 02:56:25;;;;;;;24.00;5.00;;;;;;;3.29;100.00;102670.09;5068846;28;20118;-46
2024/01/25 02:58:54;;;;;;;22.02;4.25;;;;;;;3.28;100.00;102667.50;5073317;28;20045;-45
2024/01/25 03:01:22;;;;;;;23.75;4.65;;;;;;;3.27;100.00;102671.81;5073903;28;20040;-45
2024/01/25 03:03:51;;;;;;;28.05;4.50;;;;;;;3.28;100.00;102668.34;5073628;28;20045;-46
2024/01/25 03:06:22;;;;;;;19.92;3.85;;;;;;;3.24;100.00;102666.63;5073826;28;20054;-46
2024/01/25 03:08:50;;;;;;;22.83;3.97;;;;;;;3.25;100.00;102670.97;5073490;28;20061;-45
2024/01/25 03:11:18;;;;;;;29.00;5.43;;;;;;;3.24;100.00;102671.84;5073776;28;20063;-45
2024/01/25 03:13:47;;;;;;;28.92;5.03;;;;;;;3.22;100.00;102666.66;5073702;28;20129;-45
2024/01/25 03:16:16;;;;;;;26.17;3.85;;;;;;;3.22;100.00;102653.66;5073675;28;20051;-46
2024/01/25 03:18:44;;;;;;;25.98;4.80;;;;;;;3.20;100.00;102655.41;5073062;28;20048;-45
2024/01/25 03:21:13;;;;;;;23.25;4.15;;;;;;;3.18;100.00;102656.28;5073364;28;20123;-47
2024/01/25 03:23:41;;;;;;;29.05;4.43;;;;;;;3.20;100.00;102645.00;5072834;28;20048;-46
2024/01/25 03:26:09;;;;;;;25.33;4.22;;;;;;;3.18;100.00;102653.69;5072972;28;20048;-47
2024/01/25 03:28:39;;;;;;;24.38;4.18;;;;;;;3.16;100.00;102651.09;5070008;28;20438;-48
2024/01/25 03:31:08;;;;;;;23.13;4.28;;;;;;;3.15;100.00;102644.16;5070028;28;20048;-46
2024/01/25 03:33:38;;;;;;;25.48;5.03;;;;;;;3.11;100.00;102652.84;5072499;28;20044;-46
2024/01/25 03:36:07;;;;;;;22.23;4.38;;;;;;;3.11;100.00;102663.25;5072488;28;20052;-45
2024/01/25 03:38:35;;;;;;;29.15;4.88;;;;;;;3.09;100.00;102664.13;5072566;28;20051;-48
2024/01/25 03:41:03;;;;;;;21.45;3.97;;;;;;;3.11;100.00;102665.84;5072891;28;20093;-49
2024/01/25 03:43:31;;;;;;;25.00;4.38;;;;;;;3.08;100.00;102665.88;5072559;28;20151;-48
2024/01/25 03:46:10;;;;;;;24.08;5.57;;;;;;;3.12;100.00;102675.38;5070904;28;20097;-47
2024/01/25 03:48:40;;;;;;;23.35;3.80;;;;;;;3.06;100.00;102678.00;5069297;28;20036;-48
2024/01/25 03:51:08;;;;;;;26.30;3.70;;;;;;;3.02;100.00;102673.69;5071967;28;20495;-49
2024/01/25 03:53:39;;;;;;;27.50;4.38;;;;;;;3.01;100.00;102674.53;5068970;28;20040;-46
2024/01/25 03:56:12;;;;;;;25.23;3.95;;;;;;;2.98;100.00;102664.16;5068955;28;20048;-47
2024/01/25 03:58:40;;;;;;;20.88;3.17;;;;;;;2.94;100.00;102658.13;5069410;28;20045;-49
2024/01/25 04:01:09;;;;;;;20.15;4.65;;;;;;;2.92;100.00;102656.38;5068783;28;20395;-46
2024/01/25 04:03:37;;;;;;;19.85;3.83;;;;;;;2.88;100.00;102664.19;5072672;28;20109;-46
2024/01/25 04:06:07;;;;;;;21.20;4.38;;;;;;;2.86;100.00;102660.75;5072870;28;20051;-48
2024/01/25 04:08:36;;;;;;;30.48;4.40;;;;;;;2.87;100.00;102661.63;5070976;28;20559;-47
2024/01/25 04:11:04;;;;;;;21.10;4.40;;;;;;;2.85;100.00;102671.13;5069020;28;20499;-51
2024/01/25 04:13:32;;;;;;;22.42;3.60;;;;;;;2.82;100.00;102672.03;5071700;28;20048;-49
2024/01/25 04:16:00;;;;;;;25.08;4.40;;;;;;;2.81;100.00;102678.09;5071475;28;20052;-48
2024/01/25 04:18:29;;;;;;;21.67;3.67;;;;;;;2.79;100.00;102669.44;5072293;28;20098;-46
2024/01/25 04:20:57;;;;;;;19.63;3.63;;;;;;;2.77;100.00;102665.09;5072589;28;20049;-47
2024/01/25 04:23:27;;;;;;;28.25;3.92;;;;;;;2.75;100.00;102666.84;5072654;28;20058;-46
2024/01/25 04:25:56;;;;;;;21.02;3.88;;;;;;;2.72;100.00;102675.53;5072700;28;20040;-47
2024/01/25 04:28:24;;;;;;;26.15;4.32;;;;;;;2.68;100.00;102681.59;5069683;28;20052;-48
2024/01/25 04:30:52;;;;;;;25.77;4.85;;;;;;;2.64;100.00;102687.69;5068517;28;20392;-47
2024/01/25 04:33:21;;;;;;;29.35;4.32;;;;;;;2.63;100.00;102683.34;5072610;28;20618;-47
2024/01/25 04:35:51;;;;;;;23.23;4.15;;;;;;;2.59;100.00;102679.03;5074970;28;20036;-46
2024/01/25 04:38:19;;;;;;;22.02;5.30;;;;;;;2.56;100.00;102682.47;5076749;28;20063;-47
2024/01/25 04:40:49;;;;;;;30.90;5.15;;;;;;;2.52;100.00;102678.16;5076125;28;20041;-46
2024/01/25 04:43:17;;;;;;;33.90;3.95;;;;;;;2.51;100.00;102682.50;5075859;28;20048;-46
2024/01/25 04:45:46;;;;;;;25.38;4.32;;;;;;;2.52;100.00;102676.44;5075679;28;20121;-47
2024/01/25 04:48:14;;;;;;;23.63;4.72;;;;;;;2.49;100.00;102681.63;5075912;28;20053;-48
2024/01/25 04:50:42;;;;;;;23.65;4.80;;;;;;;2.49;100.00;102684.22;5075990;28;20392;-47
2024/01/25 04:53:10;;;;;;;27.42;4.70;;;;;;;2.47;100.00;102691.16;5075927;28;20044;-48
2024/01/25 04:55:41;;;;;;;22.52;3.85;;;;;;;2.46;100.00;102694.63;5075867;28;20448;-46
2024/01/25 04:58:11;;;;;;;24.50;4.82;;;;;;;2.44;100.00;102679.91;5074631;28;20048;-46
2024/01/25 05:00:39;;;;;;;22.42;4.60;;;;;;;2.45;100.00;102685.09;5076064;28;20048;-47
2024/01/25 05:03:08;;;;;;;19.70;4.35;;;;;;;2.46;100.00;102688.59;5075869;28;20052;-47
2024/01/25 05:05:36;;;;;;;20.55;4.18;;;;;;;2.43;100.00;102696.38;5075482;28;20059;-47
2024/01/25 05:08:07;;;;;;;19.48;4.18;;;;;;;2.40;100.00;102686.88;5075941;28;20549;-47
2024/01/25 05:10:35;;;;;;;30.25;5.75;;;;;;;2.36;100.00;102680.81;5075512;28;20098;-47
2024/01/25 05:13:04;;;;;;;28.38;5.30;;;;;;;2.38;100.00;102685.97;5074599;28;20032;-54
2024/01/25 05:15:33;;;;;;;27.70;4.93;;;;;;;2.32;100.00;102692.06;5071132;28;20078;-50
2024/01/25 05:18:02;;;;;;;23.55;4.97;;;;;;;2.26;100.00;102693.78;5072375;28;20523;-52
2024/01/25 05:20:32;;;;;;;20.83;4.75;;;;;;;2.23;100.00;102699.00;5074526;28;20060;-50
2024/01/25 05:23:02;;;;;;;22.98;3.90;;;;;;;2.16;100.00;102706.78;5075282;28;20040;-49
2024/01/25 05:25:31;;;;;;;22.45;3.97;;;;;;;2.12;100.00;102707.63;5074117;28;20454;-48
2024/01/25 05:28:00;;;;;;;23.63;4.38;;;;;;;2.09;100.00;102704.19;5075607;28;20450;-48
2024/01/25 05:30:29;;;;;;;22.15;4.05;;;;;;;2.13;100.00;102704.19;5075241;28;20036;-46
2024/01/25 05:32:59;;;;;;;23.50;5.45;;;;;;;2.08;100.00;102702.47;5072444;28;20491;-47
2024/01/25 05:35:27;;;;;;;17.30;3.58;;;;;;;2.03;100.00;102702.44;5071347;28;20056;-46
2024/01/25 05:37:56;;;;;;;22.38;3.72;;;;;;;1.98;100.00;102702.44;5075414;28;20051;-50
2024/01/25 05:40:24;;;;;;;18.35;3.78;;;;;;;1.93;100.00;102705.91;5075446;28;20100;-49
2024/01/25 05:42:53;;;;;;;19.08;3.55;;;;;;;1.92;100.00;102701.56;5072748;28;20041;-46
2024/01/25 05:45:21;;;;;;;22.10;4.15;;;;;;;1.88;100.00;102703.28;5069851;28;20572;-45
2024/01/25 05:47:51;;;;;;;21.80;4.38;;;;;;;1.84;100.00;102707.63;5071750;28;20395;-45
2024/01/25 05:50:21;;;;;;;27.77;4.85;;;;;;;1.82;100.00;102719.72;5071823;28;20044;-47
2024/01/25 05:52:52;;;;;;;20.25;4.63;;;;;;;1.81;100.00;102722.31;5071639;28;20131;-47
2024/01/25 05:55:20;;;;;;;19.23;4.18;;;;;;;1.81;100.00;102720.63;5073149;28;20071;-45
2024/01/25 05:57:48;;;;;;;21.63;4.10;;;;;;;1.80;100.00;102718.88;5071983;28;20044;-46
2024/01/25 06:00:17;;;;;;;25.67;4.78;;;;;;;1.81;100.00;102718.03;5070399;28;20054;-47
2024/01/25 06:02:48;;;;;;;23.98;3.88;;;;;;;1.83;100.00;102720.63;5074779;28;20427;-45
2024/01/25 06:05:18;;;;;;;26.73;5.60;;;;;;;1.82;100.00;102711.09;5073064;28;20519;-46
2024/01/25 06:07:50;;;;;;;24.10;4.75;;;;;;;1.83;100.00;102712.81;5071642;28;20058;-46
2024/01/25 06:10:19;;;;;;;32.30;5.97;;;;;;;1.83;100.00;102710.22;5073949;28;20426;-48
2024/01/25 06:12:49;;;;;;;29.67;4.88;;;;;;;1.81;100.00;102711.94;5074959;28;20609;-46
2024/01/25 06:15:18;;;;;;;27.67;5.45;;;;;;;1.79;100.00;102717.13;5074354;28;20521;-47
2024/01/25 06:17:46;;;;;;;23.70;4.68;;;;;;;1.79;100.00;102722.31;5073174;28;20045;-46
2024/01/25 06:20:14;;;;;;;23.40;5.05;;;;;;;1.83;100.00;102736.19;5071021;28;20044;-45
2024/01/25 06:22:43;;;;;;;26.33;4.97;;;;;;;1.81;100.00;102740.50;5071482;28;20123;-53
2024/01/25 06:25:12;;;;;;;30.38;6.72;;;;;;;1.77;100.00;102744.81;5070774;28;20052;-54
2024/01/25 06:27:40;;;;;;;33.95;8.00;;;;;;;1.75;100.00;102746.53;5074497;28;20044;-52
2024/01/25 06:30:09;;;;;;;29.45;8.35;;;;;;;1.74;100.00;102742.19;5074319;28;20090;-53
2024/01/25 06:32:38;;;;;;;21.33;7.05;;;;;;;1.73;100.00;102740.47;5074171;28;20075;-52
2024/01/25 06:35:08;;;;;;;27.27;7.20;;;;;;;1.71;100.00;102755.16;5074308;28;20110;-53
2024/01/25 06:37:36;;;;;;;32.17;6.00;;;;;;;1.70;100.00;102745.66;5073808;28;20488;-53
2024/01/25 06:40:05;;;;;;;28.20;5.65;;;;;;;1.68;100.00;102750.84;5074081;28;20102;-54
2024/01/25 06:42:35;;;;;;;29.48;6.03;;;;;;;1.68;100.00;102747.38;5074330;28;20124;-53
2024/01/25 06:45:04;;;;;;;28.20;6.38;;;;;;;1.69;100.00;102749.09;5073896;28;20477;-53
2024/01/25 06:47:34;;;;;;;28.60;7.35;;;;;;;1.67;100.00;102749.09;5074065;28;20055;-55
2024/01/25 06:50:03;;;;;;;24.52;6.53;;;;;;;1.67;100.00;102746.50;5071472;28;20060;-55
2024/01/25 06:52:31;;;;;;;19.70;5.03;;;;;;;1.66;100.00;102746.50;5070568;28;20048;-54
2024/01/25 06:55:00;;;;;;;22.85;5.28;;;;;;;1.64;100.00;102745.66;5069890;28;20132;-54
2024/01/25 06:57:28;;;;;;;30.00;6.93;;;;;;;1.64;100.00;102748.25;5071332;28;20052;-53
2024/01/25 07:00:00;;;;;;;35.28;6.18;;;;;;;1.62;100.00;102749.94;5070300;28;20111;-54
2024/01/25 07:02:30;;;;;;;30.50;5.88;;;;;;;1.63;100.00;102752.53;5070365;28;20048;-52
2024/01/25 07:05:01;;;;;;;25.05;6.22;;;;;;;1.63;100.00;102743.91;5073140;28;20076;-53
2024/01/25 07:07:32;;;;;;;28.17;6.05;;;;;;;1.63;100.00;102749.09;5073242;28;20052;-52
2024/01/25 07:10:00;;;;;;;30.08;6.40;;;;;;;1.62;100.00;102736.97;5073179;28;20119;-53
2024/01/25 07:12:30;;;;;;;25.85;5.55;;;;;;;1.62;100.00;102736.97;5073279;28;20119;-53
2024/01/25 07:15:00;;;;;;;24.75;5.57;;;;;;;1.63;100.00;102728.34;5069637;28;20413;-52
2024/01/25 07:17:28;;;;;;;23.92;4.53;;;;;;;1.62;100.00;102726.59;5070157;28;20402;-51
2024/01/25 07:19:56;;;;;;;27.67;4.72;;;;;;;1.62;100.00;102727.50;5072271;28;20519;-54
2024/01/25 07:22:25;;;;;;;24.67;5.03;;;;;;;1.61;100.00;102724.88;5070367;28;20076;-52
2024/01/25 07:24:53;;;;;;;21.75;4.60;;;;;;;1.59;100.00;102731.78;5071783;28;20048;-53
2024/01/25 07:27:21;;;;;;;23.45;5.72;;;;;;;1.57;100.00;102739.56;5073245;28;20063;-54
2024/01/25 07:29:49;;;;;;;26.50;5.28;;;;;;;1.55;100.00;102735.25;5072795;28;20068;-50
2024/01/25 07:32:20;;;;;;;22.23;4.72;;;;;;;1.54;100.00;102741.28;5070156;28;20052;-54
2024/01/25 07:34:48;;;;;;;24.75;4.72;;;;;;;1.56;100.00;102742.16;5070513;28;20119;-53
2024/01/25 07:37:18;;;;;;;21.60;5.47;;;;;;;1.55;100.00;102750.81;5070584;28;20040;-51
2024/01/25 07:39:46;;;;;;;22.02;5.00;;;;;;;1.50;100.00;102754.25;5068259;28;20048;-55
2024/01/25 07:42:15;;;;;;;23.67;5.30;;;;;;;1.49;100.00;102755.09;5070376;28;20412;-54
2024/01/25 07:44:43;;;;;;;19.55;4.90;;;;;;;1.47;100.00;102753.38;5068631;28;20495;-55
2024/01/25 07:47:13;;;;;;;27.27;5.13;;;;;;;1.46;100.00;102762.88;5070343;28;20118;-52
2024/01/25 07:49:44;;;;;;;23.40;5.13;;;;;;;1.46;100.00;102760.28;5072299;28;20097;-53
2024/01/25 07:52:13;;;;;;;27.10;6.57;;;;;;;1.46;100.00;102762.88;5070679;28;20136;-50
2024/01/25 07:54:41;;;;;;;21.73;6.13;;;;;;;1.48;100.00;102763.75;5069556;28;20094;-52
2024/01/25 07:57:12;;;;;;;29.90;6.57;;;;;;;1.49;100.00;102765.47;5072938;28;20090;-53
2024/01/25 07:59:41;;;;;;;22.15;6.10;;;;;;;1.52;100.00;102751.66;5072647;28;20115;-50
2024/01/25 08:02:09;;;;;;;31.90;6.55;;;;;;;1.54;100.00;102756.84;5073049;28;20064;-53
2024/01/25 08:04:37;;;;;;;25.40;5.22;;;;;;;1.55;100.00;102764.63;5072798;28;20114;-52
2024/01/25 08:07:07;;;;;;;25.98;5.70;;;;;;;1.55;100.00;102763.78;5072737;28;20036;-53
2024/01/25 08:09:36;;;;;;;27.20;5.85;;;;;;;1.57;100.00;102767.22;5072186;28;20045;-54
2024/01/25 08:12:05;;;;;;;21.45;5.68;;;;;;;1.60;100.00;102759.47;5072228;28;20032;-51
2024/01/25 08:14:33;;;;;;;27.38;5.40;;;;;;;1.63;100.00;102759.47;5072120;28;20127;-52
2024/01/25 08:17:03;;;;;;;39.50;6.65;;;;;;;1.70;100.00;102766.41;5072374;28;20075;-54
2024/01/25 08:19:31;;;;;;;29.38;6.15;;;;;;;1.77;100.00;102757.78;5072367;28;20067;-53
2024/01/25 08:22:00;;;;;;;25.83;4.93;;;;;;;1.79;100.00;102758.66;5069084;28;20052;-53
2024/01/25 08:24:29;;;;;;;32.50;5.80;;;;;;;1.80;100.00;102760.38;5068959;28;20079;-54
2024/01/25 08:26:57;;;;;;;37.03;6.68;;;;;;;1.81;100.00;102758.66;5069142;28;20133;-52
2024/01/25 08:29:26;;;;;;;23.83;5.20;;;;;;;1.81;100.00;102763.84;5071004;28;20041;-53
2024/01/25 08:31:57;;;;;;;18.70;5.07;;;;;;;1.83;100.00;102769.91;5070156;28;20510;-53
2024/01/25 08:34:25;;;;;;;27.52;4.95;;;;;;;1.85;100.00;102774.25;5069240;28;20045;-52
2024/01/25 08:36:53;;;;;;;26.80;6.07;;;;;;;1.90;100.00;102778.56;5069288;28;20041;-53
2024/01/25 08:39:22;;;;;;;27.17;5.88;;;;;;;1.93;100.00;102781.16;5069125;28;20121;-51
2024/01/25 08:41:51;;;;;;;27.55;5.90;;;;;;;1.93;100.00;102774.25;5069843;28;20448;-53
2024/01/25 08:44:19;;;;;;;26.67;6.45;;;;;;;1.97;100.00;102782.91;5066654;28;20060;-55
2024/01/25 08:46:47;;;;;;;22.10;5.53;;;;;;;2.02;100.00;102783.78;5069424;28;20072;-53
2024/01/25 08:49:17;;;;;;;28.10;5.78;;;;;;;2.05;100.00;102798.50;5069362;28;20040;-53
2024/01/25 08:51:46;;;;;;;30.52;6.78;;;;;;;2.06;100.00;102793.31;5069156;28;20040;-55
2024/01/25 08:54:14;;;;;;;29.00;6.57;;;;;;;2.12;100.00;102795.03;5068994;28;20106;-52
2024/01/25 08:56:42;;;;;;;28.40;5.75;;;;;;;2.16;100.00;102792.44;5070687;28;20059;-54
2024/01/25 08:59:12;;;;;;;27.17;6.32;;;;;;;2.20;100.00;102795.91;5072463;28;20098;-54
2024/01/25 09:01:40;;;;;;;25.30;5.90;;;;;;;2.24;100.00;102797.66;5072048;28;20044;-53
2024/01/25 09:04:08;;;;;;;24.95;5.97;;;;;;;2.30;100.00;102794.19;5072229;28;20052;-55
2024/01/25 09:06:37;;;;;;;26.10;7.18;;;;;;;2.37;100.00;102803.72;5070632;28;20170;-55
2024/01/25 09:09:06;;;;;;;27.23;5.85;;;;;;;2.44;100.00;102792.47;5068514;28;20495;-54
2024/01/25 09:11:34;;;;;;;24.92;7.07;;;;;;;2.52;100.00;102795.06;5071068;28;20509;-54
2024/01/25 09:14:02;;;;;;;34.25;7.65;;;;;;;2.59;100.00;102798.53;5067773;28;20048;-54
2024/01/25 09:16:31;;;;;;;33.83;6.57;;;;;;;2.70;100.00;102812.41;5069335;28;20502;-54
2024/01/25 09:19:00;;;;;;;26.77;6.32;;;;;;;2.77;100.00;102821.03;5068794;28;20052;-53
2024/01/25 09:21:28;;;;;;;28.33;7.18;;;;;;;2.83;100.00;102811.50;5072565;28;20392;-51
2024/01/25 09:23:56;;;;;;;30.20;7.43;;;;;;;2.88;100.00;102809.75;5075718;28;20040;-54
2024/01/25 09:26:24;;;;;;;32.88;7.40;;;;;;;2.95;100.00;102799.38;5075057;28;20044;-54
2024/01/25 09:28:53;;;;;;;33.50;7.30;;;;;;;3.05;100.00;102793.25;5071341;28;20048;-53
2024/01/25 09:31:21;;;;;;;27.25;6.20;;;;;;;3.12;100.00;102773.31;5071774;28;20526;-52
2024/01/25 09:33:53;;;;;;;27.15;6.95;;;;;;;3.19;100.00;102772.41;5072309;28;20136;-52
2024/01/25 09:36:22;;;;;;;29.58;6.95;;;;;;;3.27;100.00;102795.78;5074143;28;20051;-53
2024/01/25 09:38:50;;;;;;;29.48;7.13;;;;;;;3.33;100.00;102806.19;5075516;28;20063;-54
2024/01/25 09:41:18;;;;;;;32.22;6.82;;;;;;;3.38;100.00;102810.50;5075349;28;20114;-53
2024/01/25 09:43:47;;;;;;;25.05;6.45;;;;;;;3.45;100.00;102808.75;5075169;28;20041;-53
2024/01/25 09:46:16;;;;;;;34.40;7.97;;;;;;;3.52;100.00;102813.03;5075088;28;20051;-54
2024/01/25 09:48:47;;;;;;;27.30;6.35;;;;;;;3.57;100.00;102820.81;5073352;28;20123;-53
2024/01/25 09:51:18;;;;;;;30.20;7.67;;;;;;;3.65;100.00;102818.19;5072658;28;20048;-56
2024/01/25 09:53:50;;;;;;;26.45;7.80;;;;;;;3.75;100.00;102804.28;5075051;28;20102;-54
2024/01/25 09:56:22;;;;;;;29.27;7.47;;;;;;;3.79;100.00;102799.91;5073914;28;20071;-54
2024/01/25 09:58:51;;;;;;;;;;;;;;;3.84;100.00;102798.16;5073091;28;20106;-53
2024/01/25 10:01:19;;;;;;;31.92;8.35;;;;;;;3.87;100.00;102786.00;5071371;28;20420;-53
2024/01/25 10:03:48;;;;;;;27.17;7.22;;;;;;;3.94;100.00;102785.94;5074027;28;20044;-56
2024/01/25 10:06:18;;;;;;;34.47;7.63;;;;;;;4.01;100.00;102777.22;5074636;28;20071;-54
2024/01/25 10:08:47;;;;;;;33.67;7.80;;;;;;;4.04;100.00;102774.59;5074686;28;20049;-54
2024/01/25 10:11:15;;;;;;;33.92;7.30;;;;;;;4.11;100.00;102771.06;5075211;28;20468;-53
2024/01/25 10:13:44;;;;;;;32.15;7.30;;;;;;;4.18;100.00;102782.31;5074519;28;20550;-55
2024/01/25 10:16:14;;;;;;;30.83;7.57;;;;;;;4.27;100.00;102778.75;5072435;28;20068;-54
2024/01/25 10:18:44;;;;;;;29.60;8.85;;;;;;;4.36;100.00;102779.56;5071723;28;20059;-54
2024/01/25 10:21:14;;;;;;;31.73;7.38;;;;;;;4.44;100.00;102760.41;5074959;28;20056;-54
2024/01/25 10:23:47;;;;;;;32.08;8.05;;;;;;;4.53;100.00;102758.56;5073011;28;20124;-53
2024/01/25 10:26:17;;;;;;;29.40;6.90;;;;;;;4.60;100.00;102748.94;5069996;28;20151;-54
2024/01/25 10:28:52;;;;;;;35.70;8.60;;;;;;;4.71;100.00;102739.28;5073508;28;20082;-53
2024/01/25 10:31:29;;;;;;;41.92;9.10;;;;;;;4.80;100.00;102751.38;5073596;28;20044;-54
2024/01/25 10:33:58;;;;;;;32.03;8.80;;;;;;;4.88;100.00;102756.47;5073629;28;20353;-54
2024/01/25 10:36:28;;;;;;;35.90;7.93;;;;;;;4.95;100.00;102758.16;5073928;28;20049;-52
2024/01/25 10:38:59;;;;;;;43.30;8.55;;;;;;;5.04;100.00;102765.00;5071548;28;20044;-54
2024/01/25 10:41:28;;;;;;;30.38;7.82;;;;;;;5.13;100.00;102770.13;5070780;28;20474;-54
2024/01/25 10:43:56;;;;;;;35.35;7.85;;;;;;;5.17;100.00;102769.19;5072269;28;20048;-54
2024/01/25 10:46:26;;;;;;;36.10;8.35;;;;;;;5.23;100.00;102757.81;5070577;28;20564;-55
2024/01/25 10:48:58;;;;;;;29.35;7.55;;;;;;;5.33;100.00;102750.75;5071968;28;20047;-51
2024/01/25 10:51:27;;;;;;;31.98;8.05;;;;;;;5.39;100.00;102755.91;5073957;28;20495;-53
2024/01/25 10:53:58;;;;;;;35.03;8.05;;;;;;;5.48;100.00;102754.91;5070542;28;20124;-54
2024/01/25 10:56:27;;;;;;;26.65;6.78;;;;;;;5.54;100.00;102758.28;5071318;28;20048;-54
2024/01/25 10:58:55;;;;;;;27.08;8.20;;;;;;;5.62;100.00;102745.16;5073567;28;20045;-54
2024/01/25 11:01:23;;;;;;;32.00;8.07;;;;;;;5.67;100.00;102739.84;5072577;28;20058;-54
2024/01/25 11:03:52;;;;;;;28.17;7.63;;;;;;;5.71;100.00;102734.59;5070732;28;20044;-54
2024/01/25 11:06:22;;;;;;;30.13;7.57;;;;;;;5.78;100.00;102735.34;5069461;28;20149;-55
2024/01/25 11:08:50;;;;;;;35.42;7.82;;;;;;;5.87;100.00;102727.34;5070762;28;20538;-55
2024/01/25 11:11:20;;;;;;;34.63;8.43;;;;;;;5.88;100.00;102738.69;5073624;28;20522;-56
2024/01/25 11:13:51;;;;;;;39.08;8.27;;;;;;;5.96;100.00;102743.78;5071604;28;20121;-54
2024/01/25 11:16:29;;;;;;;36.53;8.65;;;;;;;6.07;100.00;102741.91;5073484;28;20049;-54
2024/01/25 11:19:04;;;;;;;31.98;8.23;;;;;;;6.18;100.00;102726.91;5070101;28;20522;-55
2024/01/25 11:21:42;;;;;;;28.60;8.52;;;;;;;6.23;100.00;102724.22;5070463;28;20123;-54
2024/01/25 11:24:13;;;;;;;34.47;8.52;;;;;;;6.31;100.00;102726.72;5069882;28;20056;-55